createdAt,value
2019-03-30T00:03:53.358Z,60.33
2019-03-30T00:08:55.910Z,62.03
2019-03-30T00:14:01.057Z,63.03
2019-03-30T00:19:03.617Z,60.40
2019-03-30T00:24:06.446Z,61.20
2019-03-30T00:29:10.672Z,61.63
2019-03-30T00:34:16.292Z,60.13
2019-03-30T00:39:18.831Z,59.23
2019-03-30T00:44:21.436Z,57.47
2019-03-30T00:49:24.047Z,57.33
2019-03-30T00:54:26.600Z,52.47
2019-03-30T00:59:29.157Z,48.10
2019-03-30T01:04:33.310Z,52.47
2019-03-30T01:09:35.889Z,48.73
2019-03-30T01:14:41.211Z,45.97
2019-03-30T01:19:43.796Z,45.73
2019-03-30T01:24:46.314Z,45.03
2019-03-30T01:29:50.991Z,43.97
2019-03-30T01:34:56.692Z,44.47
2019-03-30T01:39:59.228Z,44.93
2019-03-30T01:45:01.843Z,43.67
2019-03-30T01:50:16.640Z,42.97
2019-03-30T01:55:10.054Z,40.57
2019-03-30T02:00:13.143Z,38.20
2019-03-30T02:05:15.919Z,37.87
2019-03-30T02:10:38.161Z,35.77
2019-03-30T02:15:40.705Z,35.50
2019-03-30T02:20:44.076Z,34.43
2019-03-30T02:25:46.861Z,35.70
2019-03-30T02:30:52.537Z,34.83
2019-03-30T02:35:55.080Z,35.97
2019-03-30T02:40:57.694Z,37.10
2019-03-30T02:46:00.564Z,35.43
2019-03-30T02:51:03.182Z,36.03
2019-03-30T02:56:05.795Z,35.27
2019-03-30T03:01:08.439Z,36.57
2019-03-30T03:06:11.002Z,35.37
2019-03-30T03:11:13.857Z,34.90
2019-03-30T03:16:16.438Z,36.23
2019-03-30T03:21:19.067Z,35.30
2019-03-30T03:26:24.496Z,32.97
2019-03-30T03:31:27.614Z,34.30
2019-03-30T03:36:30.336Z,35.57
2019-03-30T03:41:33.510Z,34.33
2019-03-30T03:46:36.412Z,33.37
2019-03-30T03:51:39.533Z,34.63
2019-03-30T03:56:46.394Z,34.20
2019-03-30T04:01:51.265Z,32.63
2019-03-30T04:06:59.202Z,32.33
2019-03-30T04:12:11.647Z,33.77
2019-03-30T04:17:14.327Z,32.70
2019-03-30T04:22:17.002Z,31.73
2019-03-30T04:27:19.676Z,30.10
2019-03-30T04:32:22.253Z,31.23
2019-03-30T04:37:24.855Z,31.50
2019-03-30T04:42:30.405Z,31.30
2019-03-30T04:47:32.976Z,31.33
2019-03-30T04:52:35.696Z,29.63
2019-03-30T04:57:38.237Z,28.97
2019-03-30T05:02:42.178Z,29.40
2019-03-30T05:07:44.754Z,27.83
2019-03-30T05:12:47.478Z,28.27
2019-03-30T05:17:50.074Z,29.13
2019-03-30T05:22:52.677Z,28.67
2019-03-30T05:28:01.228Z,28.43
2019-03-30T05:33:05.921Z,27.90
2019-03-30T05:38:08.812Z,29.53
2019-03-30T05:43:11.649Z,28.27
2019-03-30T05:48:14.219Z,29.20
2019-03-30T05:53:16.785Z,27.17
2019-03-30T05:58:19.329Z,27.17
2019-03-30T06:03:22.078Z,28.00
2019-03-30T06:08:24.618Z,27.60
2019-03-30T06:13:27.781Z,25.83
2019-03-30T06:18:30.356Z,27.40
2019-03-30T06:23:33.046Z,27.33
2019-03-30T06:28:37.645Z,25.93
2019-03-30T06:33:40.393Z,26.43
2019-03-30T06:38:42.959Z,26.63
2019-03-30T06:43:45.647Z,25.97
2019-03-30T06:48:48.193Z,27.00
2019-03-30T06:53:53.554Z,24.00
2019-03-30T06:58:56.686Z,25.93
2019-03-30T07:03:59.442Z,25.23
2019-03-30T07:09:04.134Z,24.37
2019-03-30T07:14:10.035Z,24.60
2019-03-30T07:19:16.403Z,23.93
2019-03-30T07:24:19.246Z,24.37
2019-03-30T07:29:24.824Z,24.67
2019-03-30T07:34:27.549Z,24.13
2019-03-30T07:39:30.074Z,23.47
2019-03-30T07:44:32.628Z,25.27
2019-03-30T07:49:35.246Z,23.93
2019-03-30T07:54:37.860Z,24.00
2019-03-30T07:59:40.934Z,24.00
2019-03-30T08:04:43.844Z,23.97
2019-03-30T08:09:46.488Z,23.27
2019-03-30T08:14:49.052Z,22.03
2019-03-30T08:19:53.874Z,21.73
2019-03-30T08:24:56.443Z,21.33
2019-03-30T08:29:59.118Z,21.93
2019-03-30T08:35:01.785Z,24.00
2019-03-30T08:40:04.829Z,23.20
2019-03-30T08:45:11.046Z,24.10
2019-03-30T08:50:13.781Z,24.27
2019-03-30T08:55:16.451Z,23.50
2019-03-30T09:00:37.131Z,22.40
2019-03-30T09:05:42.465Z,23.10
2019-03-30T09:10:45.535Z,22.83
2019-03-30T09:15:48.203Z,23.20
2019-03-30T09:20:50.828Z,23.77
2019-03-30T09:25:53.408Z,23.17
2019-03-30T09:30:56.094Z,21.90
2019-03-30T09:36:00.467Z,21.80
2019-03-30T09:41:03.107Z,22.37
2019-03-30T09:46:05.663Z,20.83
2019-03-30T09:51:08.307Z,22.27
2019-03-30T09:56:10.854Z,22.30
2019-03-30T10:01:13.560Z,21.90
2019-03-30T10:06:16.150Z,21.07
2019-03-30T10:11:18.980Z,22.43
2019-03-30T10:16:21.743Z,22.43
2019-03-30T10:21:24.468Z,23.50
2019-03-30T10:26:27.027Z,21.93
2019-03-30T10:31:31.716Z,22.43
2019-03-30T10:36:34.366Z,22.73
2019-03-30T10:41:38.244Z,22.90
2019-03-30T10:46:40.836Z,21.40
2019-03-30T10:51:43.417Z,21.87
2019-03-30T10:56:45.997Z,23.13
2019-03-30T11:01:48.594Z,22.57
2019-03-30T11:06:51.235Z,20.80
2019-03-30T11:11:53.799Z,22.77
2019-03-30T11:16:59.189Z,21.70
2019-03-30T11:22:03.364Z,23.77
2019-03-30T11:27:06.205Z,24.23
2019-03-30T11:32:10.676Z,21.50
2019-03-30T11:37:13.264Z,22.50
2019-03-30T11:42:15.812Z,22.13
2019-03-30T11:47:18.373Z,19.10
2019-03-30T11:52:21.028Z,22.27
2019-03-30T11:57:23.609Z,21.87
2019-03-30T12:02:28.087Z,21.37
2019-03-30T12:07:34.719Z,22.43
2019-03-30T12:12:40.329Z,24.17
2019-03-30T12:17:42.901Z,23.63
2019-03-30T12:22:45.496Z,22.43
2019-03-30T12:27:48.056Z,23.97
2019-03-30T12:32:51.938Z,22.90
2019-03-30T12:37:54.496Z,25.40
2019-03-30T12:42:57.411Z,23.57
2019-03-30T12:48:02.312Z,23.20
2019-03-30T12:53:06.018Z,22.77
2019-03-30T12:58:08.702Z,23.40
2019-03-30T13:03:12.413Z,25.33
2019-03-30T13:08:14.960Z,26.60
2019-03-30T13:13:17.637Z,24.90
2019-03-30T13:18:20.208Z,27.50
2019-03-30T13:23:22.809Z,27.17
2019-03-30T13:28:26.201Z,23.47
2019-03-30T13:33:28.901Z,25.80
2019-03-30T13:38:31.480Z,27.47
2019-03-30T13:43:34.108Z,27.37
2019-03-30T13:48:36.693Z,24.73
2019-03-30T13:53:39.329Z,28.87
2019-03-30T13:58:41.907Z,29.03
2019-03-30T14:03:47.263Z,30.20
2019-03-30T14:08:54.629Z,30.17
2019-03-30T14:13:57.349Z,28.27
2019-03-30T14:18:59.910Z,28.03
2019-03-30T14:24:02.541Z,31.43
2019-03-30T14:29:05.114Z,30.43
2019-03-30T14:34:07.750Z,31.33
2019-03-30T14:39:10.296Z,31.93
2019-03-30T14:44:15.125Z,32.30
2019-03-30T14:49:17.893Z,33.43
2019-03-30T14:56:14.181Z,36.40
2019-03-30T15:01:19.402Z,37.40
2019-03-30T15:06:22.188Z,39.03
2019-03-30T15:11:25.212Z,36.80
2019-03-30T15:16:27.878Z,36.57
2019-03-30T15:21:31.609Z,35.60
2019-03-30T15:26:34.580Z,34.17
2019-03-30T15:31:37.481Z,34.87
2019-03-30T15:36:40.135Z,33.43
2019-03-30T15:41:43.091Z,31.90
2019-03-30T15:46:48.856Z,33.10
2019-03-30T15:51:57.476Z,36.80
2019-03-30T15:57:13.492Z,33.77
2019-03-30T16:02:08.392Z,36.63
2019-03-30T16:07:12.927Z,35.17
2019-03-30T16:12:17.400Z,36.73
2019-03-30T16:17:20.351Z,35.83
2019-03-30T16:22:23.016Z,35.47
2019-03-30T16:27:29.211Z,34.10
2019-03-30T16:32:30.446Z,30.27
2019-03-30T16:37:33.122Z,30.23
2019-03-30T16:42:36.407Z,32.50
2019-03-30T16:47:39.440Z,31.97
2019-03-30T16:52:46.861Z,33.23
2019-03-30T16:57:52.399Z,35.53
2019-03-30T17:02:54.972Z,36.03
2019-03-30T17:07:57.626Z,37.40
2019-03-30T17:13:00.266Z,36.30
2019-03-30T17:18:04.229Z,35.73
2019-03-30T17:23:07.014Z,34.17
2019-03-30T17:28:09.550Z,33.70
2019-03-30T17:33:12.195Z,30.97
2019-03-30T17:38:16.145Z,31.40
2019-03-30T17:43:18.960Z,29.27
2019-03-30T17:48:21.514Z,29.87
2019-03-30T17:53:24.065Z,29.43
2019-03-30T17:58:30.764Z,27.43
2019-03-30T18:03:33.561Z,28.97
2019-03-30T18:08:36.098Z,28.33
2019-03-30T18:13:38.814Z,29.67
2019-03-30T18:18:41.361Z,29.07
2019-03-30T18:23:47.563Z,27.73
2019-03-30T18:28:50.325Z,27.73
2019-03-30T18:33:55.850Z,28.03
2019-03-30T18:39:09.330Z,31.73
2019-03-30T18:44:03.539Z,29.23
2019-03-30T18:49:06.133Z,29.60
2019-03-30T18:54:08.669Z,29.53
2019-03-30T18:59:11.207Z,29.03
2019-03-30T19:04:13.951Z,30.20
2019-03-30T19:09:17.715Z,28.80
2019-03-30T19:14:20.441Z,29.60
2019-03-30T19:19:23.073Z,30.63
2019-03-30T19:24:26.074Z,32.13
2019-03-30T19:29:31.615Z,31.40
2019-03-30T19:34:34.480Z,32.03
2019-03-30T19:39:37.063Z,32.33
2019-03-30T19:44:40.023Z,33.73
2019-03-30T19:49:42.576Z,35.67
2019-03-30T19:54:48.590Z,35.63
2019-03-30T19:59:51.259Z,37.77
2019-03-30T20:04:53.868Z,37.67
2019-03-30T20:09:56.701Z,39.20
2019-03-30T20:14:59.253Z,39.27
2019-03-30T20:20:01.869Z,39.63
2019-03-30T20:25:05.433Z,38.07
2019-03-30T20:30:09.111Z,41.43
2019-03-30T20:35:11.906Z,41.17
2019-03-30T20:40:14.614Z,42.43
2019-03-30T20:45:17.204Z,43.30
2019-03-30T20:50:20.960Z,42.20
2019-03-30T20:55:23.630Z,42.77
2019-03-30T21:00:26.546Z,43.43
2019-03-30T21:05:29.121Z,42.67
2019-03-30T21:10:33.513Z,44.23
2019-03-30T21:15:36.087Z,45.40
2019-03-30T21:20:41.754Z,47.57
2019-03-30T21:25:44.524Z,45.70
2019-03-30T21:30:47.320Z,44.20
2019-03-30T21:35:52.221Z,47.20
2019-03-30T21:40:56.913Z,47.27
2019-03-30T21:46:01.412Z,45.33
2019-03-30T21:51:03.976Z,47.80
2019-03-30T21:56:07.304Z,48.77
2019-03-30T22:01:09.951Z,49.20
2019-03-30T22:06:15.052Z,49.80
2019-03-30T22:11:17.960Z,53.00
2019-03-30T22:16:20.513Z,52.73
2019-03-30T22:21:23.443Z,51.90
2019-03-30T22:26:27.195Z,53.10
2019-03-30T22:31:29.834Z,54.57
2019-03-30T22:36:32.379Z,54.40
2019-03-30T22:41:35.027Z,54.37
2019-03-30T22:46:37.628Z,52.83
2019-03-30T22:51:40.210Z,54.90
2019-03-30T22:56:53.812Z,59.20
2019-03-30T23:01:58.213Z,58.97
2019-03-30T23:07:03.244Z,60.97
2019-03-30T23:12:05.956Z,60.33
2019-03-30T23:17:08.539Z,61.60
2019-03-30T23:22:15.384Z,61.83
2019-03-30T23:27:17.929Z,64.33
2019-03-30T23:32:22.658Z,66.50
2019-03-30T23:37:25.196Z,67.20
2019-03-30T23:42:27.961Z,70.53
2019-03-30T23:47:30.500Z,67.23
2019-03-30T23:52:33.395Z,70.63
2019-03-30T23:57:38.175Z,67.60
